Etusivu
METAR-TAF:

METAR-TAF

Lentoasemat :

Visbyn lentoasema

Visby, Gotlanti, Ruotsi

Leveyspiiri: 57-40N, Pituuspiiri: 018-21E, korkeus merenpinnasta: 51 m

Tämänhetkinen sää

Tämä raportti tehtiin 33 minuuttia sitten, kello 09.20 UTC
Tuuli 18 kn etelästä/lounaasta
Lämpötila 8°C
Kosteus 87%
Ilmanpaine 1016 hPa
Näkyvyys 10 km tai enemmän

METAR: ESSV 170920Z AUTO 20018KT 9999 NCD 08/06 Q1016

Aika: 10:53 (09:53 UTC)

Sääennuste

Tämä raportti tehtiin 23 minuuttia sitten, kello 09.30 UTC
Ennuste voimassa 17. päivästä klo 10 UTC - 17. päivään klo 18 UTC
Tuuli 15 kn etelästä/lounaasta
Näkyvyys 10 km tai enemmän
Hajanaisia pilviä 2000 ft:n korkeudessa

TAF: ESSV 170930Z 1710/1718 20015KT 9999 SCT020

Säähavainnot ja -ennusteet yli 4000 lentoasemalta (METAR- ja TAF-raportit).

Käytössä olevat sääasemat on merkitty karttaan keltaisilla ja punaisilla pisteillä.

Aseta hiiri pisteen päälle nähdäksesi sääaseman nimen.

Klikkaa sitten nähdäksesi säähavainnot ja -ennusteet.

Kartan vaihtaminen: klikkaa mustalla rastilla varustettuja vihreitä pisteitä, niin voit zoomata sisään; viivalla varustettua vihreää pistettä, niin voit zoomata ulos tai vihreitä nuolia, niin pääset viereisille kartoille.


METAR-TAF: